createdAt,value
2019-02-05T00:02:09.367Z,81.44
2019-02-05T00:04:39.633Z,81.61
2019-02-05T00:07:09.901Z,81.73
2019-02-05T00:09:40.162Z,81.73
2019-02-05T00:12:10.662Z,81.85
2019-02-05T00:14:41.011Z,81.85
2019-02-05T00:17:11.339Z,81.83
2019-02-05T00:19:41.627Z,81.77
2019-02-05T00:22:11.966Z,81.67
2019-02-05T00:24:42.604Z,81.59
2019-02-05T00:27:12.895Z,81.54
2019-02-05T00:29:43.239Z,81.56
2019-02-05T00:32:13.505Z,81.61
2019-02-05T00:34:43.783Z,81.59
2019-02-05T00:37:14.047Z,81.55
2019-02-05T00:39:44.307Z,81.52
2019-02-05T00:42:14.563Z,81.53
2019-02-05T00:44:44.918Z,81.52
2019-02-05T00:47:15.180Z,81.51
2019-02-05T00:49:45.453Z,81.49
2019-02-05T00:52:15.983Z,81.50
2019-02-05T00:54:46.250Z,81.54
2019-02-05T00:57:17.598Z,81.54
2019-02-05T00:59:47.931Z,81.53
2019-02-05T01:02:18.268Z,81.49
2019-02-05T01:04:48.529Z,81.47
2019-02-05T01:07:18.862Z,81.43
2019-02-05T01:09:49.135Z,81.37
2019-02-05T01:12:19.398Z,81.27
2019-02-05T01:14:49.658Z,81.34
2019-02-05T01:17:19.994Z,81.24
2019-02-05T01:19:50.425Z,81.19
2019-02-05T01:22:20.704Z,81.27
2019-02-05T01:24:51.002Z,81.28
2019-02-05T01:27:22.246Z,81.40
2019-02-05T01:29:52.883Z,81.36
2019-02-05T01:32:23.631Z,81.31
2019-02-05T01:34:53.897Z,81.30
2019-02-05T01:37:24.156Z,81.18
2019-02-05T01:39:54.502Z,81.03
2019-02-05T01:42:24.894Z,80.99
2019-02-05T01:44:56.696Z,81.06
2019-02-05T01:47:26.957Z,81.11
2019-02-05T01:49:57.296Z,81.03
2019-02-05T01:52:27.627Z,81.02
2019-02-05T01:54:57.901Z,81.02
2019-02-05T01:57:28.163Z,81.11
2019-02-05T01:59:58.818Z,81.17
2019-02-05T02:02:29.211Z,81.21
2019-02-05T02:04:59.574Z,81.16
2019-02-05T02:07:32.780Z,81.11
2019-02-05T02:10:03.214Z,81.15
2019-02-05T02:12:33.824Z,81.20
2019-02-05T02:15:06.053Z,81.11
2019-02-05T02:17:36.327Z,81.22
2019-02-05T02:20:14.992Z,81.22
2019-02-05T02:22:45.545Z,81.24
2019-02-05T02:25:16.201Z,81.30
2019-02-05T02:27:47.245Z,81.37
2019-02-05T02:30:23.477Z,81.21
2019-02-05T02:32:53.950Z,81.33
2019-02-05T02:35:24.216Z,81.33
2019-02-05T02:37:54.935Z,81.30
2019-02-05T02:40:25.189Z,81.33
2019-02-05T02:42:55.544Z,81.41
2019-02-05T02:45:25.805Z,81.56
2019-02-05T02:47:57.148Z,81.74
2019-02-05T02:50:27.404Z,81.69
2019-02-05T02:52:57.763Z,81.69
2019-02-05T02:55:28.083Z,81.72
2019-02-05T02:57:58.423Z,81.66
2019-02-05T03:00:28.700Z,81.64
2019-02-05T03:02:59.034Z,81.60
2019-02-05T03:05:29.742Z,81.65
2019-02-05T03:08:00.101Z,81.62
2019-02-05T03:10:31.103Z,81.61
2019-02-05T03:13:01.411Z,81.64
2019-02-05T03:15:31.651Z,81.63
2019-02-05T03:18:01.939Z,81.53
2019-02-05T03:20:32.728Z,81.60
2019-02-05T03:23:02.992Z,81.60
2019-02-05T03:25:33.258Z,81.51
2019-02-05T03:28:03.546Z,81.40
2019-02-05T03:30:33.790Z,81.32
2019-02-05T03:33:04.089Z,81.39
2019-02-05T03:35:34.342Z,81.28
2019-02-05T03:38:04.664Z,81.18
2019-02-05T03:40:38.217Z,81.07
2019-02-05T03:43:08.474Z,80.99
2019-02-05T03:45:38.748Z,81.05
2019-02-05T03:48:09.033Z,81.11
2019-02-05T03:50:46.940Z,81.05
2019-02-05T03:53:53.360Z,81.00
2019-02-05T03:56:46.273Z,81.15
2019-02-05T03:59:28.440Z,81.22
2019-02-05T04:02:11.173Z,81.51
2019-02-05T04:04:47.967Z,81.56
2019-02-05T04:07:21.497Z,81.41
2019-02-05T04:10:00.512Z,81.34
2019-02-05T04:12:34.051Z,81.33
2019-02-05T04:15:10.673Z,81.37
2019-02-05T04:17:47.179Z,81.25
2019-02-05T04:20:20.724Z,81.32
2019-02-05T04:23:11.009Z,81.37
2019-02-05T04:25:56.741Z,81.34
2019-02-05T04:28:39.128Z,81.33
2019-02-05T04:31:24.811Z,81.37
2019-02-05T04:34:04.034Z,81.38
2019-02-05T04:36:52.320Z,81.40
2019-02-05T04:39:34.569Z,81.45
2019-02-05T04:42:19.513Z,81.55
2019-02-05T04:44:53.327Z,81.55
2019-02-05T04:47:45.227Z,81.65
2019-02-05T04:50:22.825Z,81.65
2019-02-05T04:53:08.306Z,81.61
2019-02-05T04:55:58.427Z,81.60
2019-02-05T04:58:41.041Z,81.53
2019-02-05T05:01:17.361Z,81.55
2019-02-05T05:03:50.904Z,81.46
2019-02-05T05:06:45.551Z,81.35
2019-02-05T05:09:19.091Z,81.35
2019-02-05T05:11:49.358Z,81.33
2019-02-05T05:14:19.650Z,81.23
2019-02-05T05:16:49.929Z,81.26
2019-02-05T05:19:20.486Z,81.27
2019-02-05T05:21:50.777Z,81.22
2019-02-05T05:24:21.068Z,81.11
2019-02-05T05:26:51.361Z,81.13
2019-02-05T05:29:21.634Z,81.12
2019-02-05T05:31:51.974Z,81.15
2019-02-05T05:34:22.748Z,81.15
2019-02-05T05:36:52.103Z,81.12
2019-02-05T05:39:22.405Z,81.21
2019-02-05T05:41:52.863Z,81.21
2019-02-05T05:44:23.143Z,81.19
2019-02-05T05:46:53.435Z,81.20
2019-02-05T05:49:24.023Z,81.30
2019-02-05T05:51:54.326Z,81.37
2019-02-05T05:54:24.626Z,81.33
2019-02-05T05:56:54.923Z,81.37
2019-02-05T05:59:25.231Z,81.39
2019-02-05T06:01:55.503Z,81.39
2019-02-05T06:04:26.116Z,81.42
2019-02-05T06:06:56.408Z,81.47
2019-02-05T06:09:26.722Z,81.46
2019-02-05T06:11:56.988Z,81.41
2019-02-05T06:14:27.305Z,81.42
2019-02-05T06:16:57.553Z,81.47
2019-02-05T06:19:28.192Z,81.44
2019-02-05T06:21:58.477Z,81.55
2019-02-05T06:24:28.776Z,81.53
2019-02-05T06:26:59.086Z,81.50
2019-02-05T06:29:29.393Z,81.56
2019-02-05T06:31:59.681Z,81.47
2019-02-05T06:34:29.979Z,81.54
2019-02-05T06:37:00.333Z,81.51
2019-02-05T06:39:30.620Z,81.53
2019-02-05T06:42:00.903Z,81.49
2019-02-05T06:44:31.240Z,81.42
2019-02-05T06:47:01.514Z,81.40
2019-02-05T06:49:31.826Z,81.32
2019-02-05T06:52:02.110Z,81.36
2019-02-05T06:54:32.583Z,81.28
2019-02-05T06:57:02.848Z,81.34
2019-02-05T06:59:33.212Z,81.39
2019-02-05T07:02:03.497Z,81.46
2019-02-05T07:04:33.806Z,81.57
2019-02-05T07:07:04.189Z,81.53
2019-02-05T07:09:34.607Z,81.60
2019-02-05T07:12:05.104Z,81.55
2019-02-05T07:14:35.520Z,81.41
2019-02-05T07:17:05.856Z,81.32
2019-02-05T07:19:36.279Z,81.31
2019-02-05T07:22:08.147Z,81.48
2019-02-05T07:24:38.862Z,81.72
2019-02-05T07:27:13.248Z,81.35
2019-02-05T07:29:43.578Z,81.61
2019-02-05T07:32:14.179Z,81.19
2019-02-05T07:34:44.541Z,80.94
2019-02-05T07:37:15.542Z,80.69
2019-02-05T07:39:46.353Z,80.31
2019-02-05T07:42:16.716Z,79.43
2019-02-05T07:44:47.055Z,78.57
2019-02-05T07:47:17.703Z,77.85
2019-02-05T07:49:47.986Z,77.53
2019-02-05T07:52:18.258Z,77.66
2019-02-05T07:54:48.560Z,77.14
2019-02-05T07:57:18.845Z,76.58
2019-02-05T07:59:49.151Z,75.65
2019-02-05T08:02:19.423Z,75.76
2019-02-05T08:04:49.742Z,75.22
2019-02-05T08:07:20.161Z,75.35
2019-02-05T08:09:50.521Z,74.73
2019-02-05T08:12:20.797Z,74.46
2019-02-05T08:14:51.086Z,74.77
2019-02-05T08:17:21.368Z,74.16
2019-02-05T08:19:51.641Z,72.96
2019-02-05T08:22:21.978Z,72.73
2019-02-05T08:24:52.236Z,72.39
2019-02-05T08:27:25.790Z,71.93
2019-02-05T08:29:56.069Z,72.36
2019-02-05T08:32:26.343Z,72.05
2019-02-05T08:34:56.787Z,72.52
2019-02-05T08:37:27.055Z,72.88
2019-02-05T08:39:58.963Z,72.66
2019-02-05T08:42:29.218Z,71.20
2019-02-05T08:44:59.476Z,72.55
2019-02-05T08:47:29.769Z,72.16
2019-02-05T08:50:00.588Z,71.77
2019-02-05T08:52:30.889Z,72.65
2019-02-05T08:55:01.346Z,72.94
2019-02-05T08:57:31.606Z,71.81
2019-02-05T09:00:02.008Z,71.41
2019-02-05T09:02:34.145Z,71.98
2019-02-05T09:05:06.662Z,70.85
2019-02-05T09:07:37.129Z,69.60
2019-02-05T09:10:10.790Z,67.99
2019-02-05T09:12:41.120Z,71.12
2019-02-05T09:15:12.578Z,70.03
2019-02-05T09:17:43.212Z,68.65
2019-02-05T09:20:18.321Z,66.23
2019-02-05T09:22:48.728Z,66.30
2019-02-05T09:25:19.831Z,65.69
2019-02-05T09:27:51.295Z,65.87
2019-02-05T09:30:34.139Z,64.47
2019-02-05T09:33:15.291Z,64.10
2019-02-05T09:35:45.650Z,62.16
2019-02-05T09:38:19.217Z,64.15
2019-02-05T09:45:06.565Z,64.94
2019-02-05T09:48:15.659Z,66.00
2019-02-05T09:50:46.006Z,66.63
2019-02-05T09:53:16.363Z,67.43
2019-02-05T09:56:41.518Z,66.29
2019-02-05T09:59:27.246Z,66.14
2019-02-05T10:01:57.554Z,66.34
2019-02-05T10:04:29.348Z,65.81
2019-02-05T10:06:59.614Z,66.20
2019-02-05T10:09:29.964Z,67.19
2019-02-05T10:12:00.250Z,67.25
2019-02-05T10:14:30.791Z,66.61
2019-02-05T10:17:01.123Z,67.67
2019-02-05T10:19:31.384Z,66.78
2019-02-05T10:22:01.780Z,65.73
2019-02-05T10:24:32.143Z,64.65
2019-02-05T10:27:02.482Z,64.50
2019-02-05T10:29:33.012Z,64.41
2019-02-05T10:32:04.992Z,62.65
2019-02-05T10:35:09.020Z,61.75
2019-02-05T10:37:39.569Z,61.90
2019-02-05T10:40:12.359Z,62.06
2019-02-05T10:42:44.219Z,63.08
2019-02-05T10:45:17.420Z,62.77
2019-02-05T10:47:47.741Z,60.98
2019-02-05T10:50:19.268Z,61.61
2019-02-05T10:52:49.599Z,62.58
2019-02-05T10:55:21.861Z,61.99
2019-02-05T10:57:53.753Z,63.99
2019-02-05T11:00:28.626Z,63.89
2019-02-05T11:03:00.725Z,64.48
2019-02-05T11:05:31.497Z,63.67
2019-02-05T11:08:03.288Z,63.87
2019-02-05T11:10:33.547Z,65.21
2019-02-05T11:13:03.969Z,63.03
2019-02-05T11:15:34.230Z,64.51
2019-02-05T11:18:07.382Z,63.73
2019-02-05T11:20:37.763Z,61.85
2019-02-05T11:23:08.031Z,62.36
2019-02-05T11:25:38.370Z,63.48
2019-02-05T11:28:08.697Z,64.56
2019-02-05T11:30:43.598Z,64.37
2019-02-05T11:33:14.149Z,63.04
2019-02-05T11:35:44.427Z,64.82
2019-02-05T11:38:14.798Z,64.20
2019-02-05T11:40:46.844Z,64.41
2019-02-05T11:43:17.176Z,65.42
2019-02-05T11:45:47.686Z,65.73
2019-02-05T11:48:18.380Z,66.34
2019-02-05T11:50:48.728Z,65.76
2019-02-05T11:53:19.009Z,67.25
2019-02-05T11:55:50.155Z,68.41
2019-02-05T11:58:20.420Z,68.95
2019-02-05T12:00:55.035Z,69.70
2019-02-05T12:03:25.291Z,69.70
2019-02-05T12:05:55.552Z,69.71
2019-02-05T12:08:25.975Z,69.97
2019-02-05T12:10:56.243Z,70.43
2019-02-05T12:13:26.511Z,70.28
2019-02-05T12:15:56.763Z,70.63
2019-02-05T12:18:27.296Z,70.84
2019-02-05T12:20:57.758Z,70.92
2019-02-05T12:23:28.234Z,70.64
2019-02-05T12:25:58.579Z,70.76
2019-02-05T12:28:28.826Z,71.47
2019-02-05T12:30:59.128Z,70.69
2019-02-05T12:33:29.925Z,70.24
2019-02-05T12:36:00.191Z,70.77
2019-02-05T12:39:22.555Z,70.71
2019-02-05T12:41:52.820Z,70.70
2019-02-05T12:44:23.076Z,71.00
2019-02-05T12:46:53.139Z,71.27
2019-02-05T12:49:24.504Z,71.54
2019-02-05T12:52:08.038Z,71.07
2019-02-05T12:54:38.623Z,70.76
2019-02-05T12:57:09.084Z,71.15
2019-02-05T12:59:39.404Z,71.88
2019-02-05T13:02:13.079Z,71.57
2019-02-05T13:04:48.155Z,71.57
2019-02-05T13:07:22.843Z,71.54
2019-02-05T13:09:55.496Z,71.51
2019-02-05T13:12:25.942Z,70.99
2019-02-05T13:14:57.219Z,71.48
2019-02-05T13:17:31.122Z,71.02
2019-02-05T13:20:17.662Z,70.85
2019-02-05T13:36:26.345Z,72.04
2019-02-05T13:38:56.609Z,72.37
2019-02-05T13:41:29.087Z,72.00
2019-02-05T13:43:59.051Z,72.01
2019-02-05T13:46:29.580Z,71.87
2019-02-05T13:48:59.898Z,71.94
2019-02-05T13:51:30.157Z,72.33
2019-02-05T13:54:00.508Z,72.47
2019-02-05T13:56:30.979Z,72.31
2019-02-05T13:59:34.172Z,72.53
2019-02-05T14:02:03.395Z,72.83
2019-02-05T14:04:33.851Z,73.17
2019-02-05T14:07:04.318Z,73.10
2019-02-05T14:09:34.616Z,72.85
2019-02-05T14:12:04.890Z,72.54
2019-02-05T14:14:35.162Z,72.03
2019-02-05T14:17:05.618Z,72.31
2019-02-05T14:19:37.509Z,72.42
2019-02-05T14:22:07.860Z,71.91
2019-02-05T14:24:38.294Z,72.59
2019-02-05T14:27:08.549Z,72.50
2019-02-05T14:29:39.225Z,72.72
2019-02-05T14:32:09.629Z,72.66
2019-02-05T14:34:40.021Z,72.10
2019-02-05T14:37:10.637Z,73.31
2019-02-05T14:39:40.957Z,72.89
2019-02-05T14:42:11.363Z,72.65
2019-02-05T14:44:43.305Z,73.30
2019-02-05T14:47:13.617Z,73.00
2019-02-05T14:49:43.865Z,73.06
2019-02-05T14:52:14.126Z,73.46
2019-02-05T14:54:44.430Z,73.41
2019-02-05T14:57:14.859Z,73.08
2019-02-05T14:59:45.371Z,73.18
2019-02-05T15:02:15.668Z,73.22
2019-02-05T15:04:46.123Z,73.09
2019-02-05T15:07:16.530Z,73.27
2019-02-05T15:09:47.400Z,73.31
2019-02-05T15:12:21.170Z,73.14
2019-02-05T15:14:50.631Z,73.30
2019-02-05T15:17:22.373Z,72.90
2019-02-05T15:19:53.409Z,72.81
2019-02-05T15:22:24.893Z,72.83
2019-02-05T15:24:55.702Z,73.32
2019-02-05T15:27:25.950Z,72.90
2019-02-05T15:29:56.340Z,72.17
2019-02-05T15:32:42.016Z,71.85
2019-02-05T15:35:14.136Z,72.17
2019-02-05T15:37:44.430Z,72.72
2019-02-05T15:40:16.924Z,72.75
2019-02-05T15:42:48.931Z,71.87
2019-02-05T15:45:19.903Z,71.96
2019-02-05T15:47:50.168Z,71.87
2019-02-05T15:50:20.556Z,72.26
2019-02-05T15:52:50.801Z,72.71
2019-02-05T15:55:21.249Z,72.93
2019-02-05T15:57:52.626Z,73.57
2019-02-05T16:00:24.818Z,74.01
2019-02-05T16:02:55.037Z,74.07
2019-02-05T16:05:25.617Z,74.56
2019-02-05T16:07:55.940Z,74.11
2019-02-05T16:10:27.595Z,74.12
2019-02-05T16:12:58.291Z,74.42
2019-02-05T16:15:28.674Z,74.04
2019-02-05T16:17:58.908Z,74.20
2019-02-05T16:20:29.317Z,74.85
2019-02-05T16:22:59.625Z,74.58
2019-02-05T16:25:31.075Z,74.38
2019-02-05T16:28:01.393Z,74.94
2019-02-05T16:30:32.523Z,75.05
2019-02-05T16:33:02.835Z,75.15
2019-02-05T16:35:33.180Z,75.46
2019-02-05T16:38:03.589Z,75.56
2019-02-05T16:40:38.998Z,75.36
2019-02-05T16:43:09.533Z,75.44
2019-02-05T16:45:39.898Z,75.55
2019-02-05T16:48:10.568Z,75.65
2019-02-05T16:50:44.100Z,75.58
2019-02-05T16:53:15.009Z,75.11
2019-02-05T16:55:45.418Z,75.16
2019-02-05T16:58:15.728Z,75.28
2019-02-05T17:00:45.949Z,75.10
2019-02-05T17:03:16.268Z,75.11
2019-02-05T17:05:46.873Z,75.50
2019-02-05T17:08:17.125Z,75.50
2019-02-05T17:10:48.112Z,74.99
2019-02-05T17:13:18.426Z,75.10
2019-02-05T17:15:49.545Z,74.91
2019-02-05T17:18:23.708Z,75.22
2019-02-05T17:20:52.900Z,75.37
2019-02-05T17:23:24.724Z,75.65
2019-02-05T17:25:56.300Z,75.51
2019-02-05T17:28:26.633Z,75.72
2019-02-05T17:30:56.909Z,75.62
2019-02-05T17:33:27.997Z,75.59
2019-02-05T17:35:58.442Z,75.66
2019-02-05T17:38:28.983Z,75.71
2019-02-05T17:40:59.920Z,75.58
2019-02-05T17:43:31.170Z,75.72
2019-02-05T17:46:01.430Z,75.79
2019-02-05T17:48:33.270Z,75.63
2019-02-05T17:51:03.704Z,75.64
2019-02-05T17:53:33.995Z,75.83
2019-02-05T17:56:05.345Z,75.85
2019-02-05T17:58:35.590Z,75.51
2019-02-05T18:01:08.052Z,75.61
2019-02-05T18:03:39.476Z,75.67
2019-02-05T18:06:11.379Z,75.83
2019-02-05T18:08:41.803Z,75.07
2019-02-05T18:11:12.603Z,75.51
2019-02-05T18:13:43.398Z,75.36
2019-02-05T18:16:15.378Z,75.25
2019-02-05T18:18:45.636Z,75.20
2019-02-05T18:21:16.706Z,75.33
2019-02-05T18:23:47.664Z,75.92
2019-02-05T18:26:21.322Z,75.73
2019-02-05T18:29:26.513Z,75.87
2019-02-05T18:31:47.419Z,76.11
2019-02-05T18:34:17.840Z,75.73
2019-02-05T18:36:48.310Z,76.04
2019-02-05T18:39:18.667Z,76.04
2019-02-05T18:41:51.014Z,76.22
2019-02-05T18:44:21.338Z,76.19
2019-02-05T18:46:51.412Z,76.01
2019-02-05T18:49:22.607Z,76.11
2019-02-05T18:51:53.126Z,76.16
2019-02-05T18:54:23.798Z,76.21
2019-02-05T18:56:54.315Z,76.06
2019-02-05T18:59:24.779Z,76.02
2019-02-05T19:01:56.276Z,76.06
2019-02-05T19:04:26.946Z,76.32
2019-02-05T19:07:03.729Z,76.47
2019-02-05T19:09:35.341Z,76.50
2019-02-05T19:12:05.690Z,76.61
2019-02-05T19:14:36.935Z,76.71
2019-02-05T19:17:07.282Z,76.59
2019-02-05T19:19:37.742Z,76.78
2019-02-05T19:22:09.084Z,76.82
2019-02-05T19:24:41.052Z,76.78
2019-02-05T19:27:11.401Z,76.91
2019-02-05T19:29:42.009Z,76.78
2019-02-05T19:32:16.019Z,76.69
2019-02-05T19:34:46.348Z,76.83
2019-02-05T19:37:16.870Z,77.01
2019-02-05T19:39:48.400Z,76.80
2019-02-05T19:42:18.732Z,76.98
2019-02-05T19:44:50.702Z,76.89
2019-02-05T19:47:22.253Z,76.92
2019-02-05T19:49:52.746Z,76.98
2019-02-05T19:52:23.898Z,77.25
2019-02-05T19:54:55.646Z,77.26
2019-02-05T19:57:28.412Z,77.33
2019-02-05T19:59:59.895Z,77.27
2019-02-05T20:02:31.882Z,77.30
2019-02-05T20:05:03.408Z,77.34
2019-02-05T20:07:36.330Z,77.48
2019-02-05T20:10:09.718Z,77.67
2019-02-05T20:12:41.148Z,77.57
2019-02-05T20:15:16.133Z,77.40
2019-02-05T20:17:46.632Z,77.20
2019-02-05T20:20:20.920Z,77.21
2019-02-05T20:22:51.926Z,77.12
2019-02-05T20:25:23.422Z,77.08
2019-02-05T20:27:54.985Z,77.04
2019-02-05T20:30:27.040Z,77.25
2019-02-05T20:32:58.592Z,77.16
2019-02-05T20:35:30.755Z,77.40
2019-02-05T20:38:09.398Z,77.48
2019-02-05T20:40:42.205Z,77.53
2019-02-05T20:43:13.037Z,77.53
2019-02-05T20:45:45.118Z,77.66
2019-02-05T20:48:16.245Z,77.58
2019-02-05T20:50:48.826Z,77.63
2019-02-05T20:53:19.121Z,77.81
2019-02-05T20:55:49.448Z,77.88
2019-02-05T20:58:19.834Z,77.93
2019-02-05T21:00:50.238Z,77.98
2019-02-05T21:03:21.335Z,77.93
2019-02-05T21:05:52.227Z,78.02
2019-02-05T21:08:23.992Z,77.93
2019-02-05T21:10:55.558Z,78.01
2019-02-05T21:13:27.707Z,78.20
2019-02-05T21:15:57.991Z,78.30
2019-02-05T21:18:28.411Z,78.13
2019-02-05T21:20:58.678Z,78.20
2019-02-05T21:23:29.773Z,78.19
2019-02-05T21:26:00.695Z,78.26
2019-02-05T21:28:30.963Z,78.24
2019-02-05T21:31:01.274Z,78.23
2019-02-05T21:33:32.328Z,78.26
2019-02-05T21:36:02.645Z,78.26
2019-02-05T21:38:33.170Z,78.22
2019-02-05T21:41:03.593Z,78.44
2019-02-05T21:43:35.179Z,78.43
2019-02-05T21:46:06.690Z,78.27
2019-02-05T21:48:37.012Z,78.26
2019-02-05T21:51:07.446Z,78.43
2019-02-05T21:53:37.716Z,78.56
2019-02-05T21:56:08.119Z,78.56
2019-02-05T21:58:38.390Z,78.54
2019-02-05T22:01:09.132Z,78.42
2019-02-05T22:03:39.534Z,78.39
2019-02-05T22:06:09.779Z,78.27
2019-02-05T22:08:40.066Z,78.31
2019-02-05T22:11:12.153Z,78.37
2019-02-05T22:13:43.409Z,78.40
2019-02-05T22:16:13.706Z,78.27
2019-02-05T22:18:44.072Z,78.32
2019-02-05T22:21:14.704Z,78.30
2019-02-05T22:23:44.984Z,78.53
2019-02-05T22:26:15.322Z,78.47
2019-02-05T22:28:46.821Z,78.40
2019-02-05T22:31:17.101Z,78.37
2019-02-05T22:33:48.190Z,78.39
2019-02-05T22:36:18.613Z,78.46
2019-02-05T22:38:48.903Z,78.68
2019-02-05T22:41:19.588Z,78.68
2019-02-05T22:43:49.846Z,78.57
2019-02-05T22:46:20.091Z,78.35
2019-02-05T22:48:50.503Z,78.34
2019-02-05T22:51:21.144Z,78.40
2019-02-05T22:53:51.823Z,78.47
2019-02-05T22:56:22.536Z,78.33
2019-02-05T22:58:52.975Z,78.49
2019-02-05T23:01:29.096Z,78.78
2019-02-05T23:04:02.908Z,78.83
2019-02-05T23:06:41.841Z,78.93
2019-02-05T23:09:29.945Z,79.06
2019-02-05T23:12:06.545Z,79.14
2019-02-05T23:14:36.816Z,79.26
2019-02-05T23:17:07.197Z,79.20
2019-02-05T23:19:37.449Z,79.14
2019-02-05T23:22:07.770Z,79.19
2019-02-05T23:24:38.098Z,79.27
2019-02-05T23:27:08.496Z,79.24
2019-02-05T23:29:38.748Z,79.20
2019-02-05T23:32:09.033Z,79.17
2019-02-05T23:34:39.306Z,79.18
2019-02-05T23:37:09.579Z,79.17
2019-02-05T23:39:39.905Z,79.21
2019-02-05T23:42:10.178Z,79.26
2019-02-05T23:44:40.815Z,79.18
2019-02-05T23:47:11.070Z,79.21
2019-02-05T23:49:41.326Z,79.14
2019-02-05T23:52:11.599Z,78.95
2019-02-05T23:54:41.989Z,78.94
2019-02-05T23:57:12.304Z,78.87
2019-02-05T23:59:42.622Z,78.76
